Martin State Airport Baltimore US
ICAO: KMTN
IATA: MTN
Category: Medium
Scheduled Services: No

Elevation: 21 ft
TransAlt. 18000 ft.

Airport Communications:
POTOMAC APP/DEP:119
ATIS:124.925
AWOS 3:124.925
POTOMAC CLNC DEL:121.8
CTAF:121.3
GND:121.8
135 AG COMD POST:38.59
175 FG COMD POST:34.72
TWR:121.3
UNICOM:122.95

KMTN Zoom In..

If you have problems with the map follow the link
https://www.worldairports.se/pages/airport.php?
ICAO=KMTN

Runways:

(A) RW 15 length 6997 ft width 180 ft
LOC 110.70 / hdg 146

(B) RW 33 length 6997 ft width 180 ft
LOC 110.70 / hdg 326

Location; KMTN
Day. 20 / Time. 21.45 Zulu
* Altimeter: 30.34
* Temperature: 00° c. 32°f.
* Wind from: 000° Speed 00 kn.
Dewpoint: 00° c.
Visibility: 2 Statute Miles.
Clouds: Overcast 500 ft.

KMTN 202145Z 00000KT 2SM -RABR OVC005 00/00 A3034


Wind - Calm.

 
 
jpsmedia.com for Web Design worldairports.se 2019   terms of use